Ana Sayfa
METAR-TAF:

METAR-TAF

Havaalanları :

Mo i Rana, Norveç

Enlem: 66-22N, Boylam: 014-18E, yükseklik: 7 m

Güncel hava durumu gözlemi

Rapor saat 22:50 UTC de 5 saat ve 2 dakika önce yapıldı.
Rüzgar kuzeybatıdan 2 kt
Sıcaklık -11°C
Nem 92%
Basınç 994 hPa
Görüş mesafesi 10 km veya daha fazla
1500 m altında bulut yok ve kümülonimbus yok

METAR: ENRA 272250Z 32002KT CAVOK M11/M12 Q0994

Saat: 04:52 (03:52 UTC)

Tahmin

Rapor saat 17:00 UTC de 10 saat ve 52 dakika önce yapıldı.
Ayın 27'si saat 18 UTC'den ayın 28'si saat 02 UTC'ye kadar geçerli Tahmin
Rüzgar güney/güneydoğudan 8 kt
Görüş mesafesi 10 km veya daha fazla
1500 m altında bulut yok ve kümülonimbus yok

TAF: ENRA 271700Z 2718/2802 15008KT CAVOK

4.000'den fazla havaalanı için hava durumu gözlemleri ve tahminleri (METAR ve TAF raporları).

Kullanılabilir istasyonlar harita üzerinde sarı ve kırmızı noktalarla gösterilir.

İstasyonun adını görmek için fareyi noktanın üzerinde gezdirin.

Sonrasında hava gözlem ve tahminlerini görmek için tıklayın.

Haritayı değiştirmek için: yaklaştırmak için siyah artı işaretli yeşil düğmeye ve uzaklaştırmak için de eksi işaretli düğmeye hızla tıklayın; bitişik haritalar için yeşil okları kullanın.


METAR-TAF: